sensor_id;sensor_type;location;lat;lon;timestamp;P1;durP1;ratioP1;P2;durP2;ratioP2
1174;SDS011;576;48.418;10.074;2023-01-15T00:02:05;2.17;;;1.20;;
1174;SDS011;576;48.418;10.074;2023-01-15T00:04:33;6.47;;;1.23;;
1174;SDS011;576;48.418;10.074;2023-01-15T00:07:01;1.73;;;1.53;;
1174;SDS011;576;48.418;10.074;2023-01-15T00:09:31;3.43;;;2.10;;
1174;SDS011;576;48.418;10.074;2023-01-15T00:11:59;1.60;;;1.20;;
1174;SDS011;576;48.418;10.074;2023-01-15T00:14:28;1.87;;;1.50;;
1174;SDS011;576;48.418;10.074;2023-01-15T00:16:56;1.67;;;1.13;;
1174;SDS011;576;48.418;10.074;2023-01-15T00:19:24;1.70;;;1.60;;
1174;SDS011;576;48.418;10.074;2023-01-15T00:21:52;1.33;;;1.10;;
1174;SDS011;576;48.418;10.074;2023-01-15T00:24:20;1.57;;;1.47;;
1174;SDS011;576;48.418;10.074;2023-01-15T00:27:07;1.30;;;1.20;;
1174;SDS011;576;48.418;10.074;2023-01-15T00:29:54;1.73;;;1.63;;
1174;SDS011;576;48.418;10.074;2023-01-15T00:32:22;1.47;;;1.20;;
1174;SDS011;576;48.418;10.074;2023-01-15T00:34:53;2.03;;;1.50;;
1174;SDS011;576;48.418;10.074;2023-01-15T00:37:22;1.13;;;1.03;;
1174;SDS011;576;48.418;10.074;2023-01-15T00:39:50;2.30;;;1.00;;
1174;SDS011;576;48.418;10.074;2023-01-15T00:42:19;1.57;;;0.90;;
1174;SDS011;576;48.418;10.074;2023-01-15T00:44:47;1.40;;;0.90;;
1174;SDS011;576;48.418;10.074;2023-01-15T00:47:16;1.73;;;1.00;;
1174;SDS011;576;48.418;10.074;2023-01-15T00:49:44;1.10;;;1.00;;
1174;SDS011;576;48.418;10.074;2023-01-15T00:52:12;1.17;;;1.00;;
1174;SDS011;576;48.418;10.074;2023-01-15T00:54:40;1.60;;;1.10;;
1174;SDS011;576;48.418;10.074;2023-01-15T00:57:09;0.80;;;0.80;;
1174;SDS011;576;48.418;10.074;2023-01-15T00:59:39;0.70;;;0.70;;
1174;SDS011;576;48.418;10.074;2023-01-15T01:02:07;1.33;;;0.90;;
1174;SDS011;576;48.418;10.074;2023-01-15T01:04:35;1.00;;;0.97;;
1174;SDS011;576;48.418;10.074;2023-01-15T01:07:04;1.83;;;1.10;;
1174;SDS011;576;48.418;10.074;2023-01-15T01:09:32;0.90;;;0.90;;
1174;SDS011;576;48.418;10.074;2023-01-15T01:12:01;0.73;;;0.73;;
1174;SDS011;576;48.418;10.074;2023-01-15T01:14:29;1.33;;;0.93;;
1174;SDS011;576;48.418;10.074;2023-01-15T01:16:59;1.03;;;0.80;;
1174;SDS011;576;48.418;10.074;2023-01-15T01:19:27;0.80;;;0.80;;
1174;SDS011;576;48.418;10.074;2023-01-15T01:21:56;3.17;;;1.20;;
1174;SDS011;576;48.418;10.074;2023-01-15T01:24:24;0.73;;;0.73;;
1174;SDS011;576;48.418;10.074;2023-01-15T01:26:54;1.30;;;1.00;;
1174;SDS011;576;48.418;10.074;2023-01-15T01:29:23;1.00;;;1.00;;
1174;SDS011;576;48.418;10.074;2023-01-15T01:31:51;1.10;;;1.00;;
1174;SDS011;576;48.418;10.074;2023-01-15T01:34:21;0.90;;;0.90;;
1174;SDS011;576;48.418;10.074;2023-01-15T01:36:49;0.70;;;0.63;;
1174;SDS011;576;48.418;10.074;2023-01-15T01:39:17;1.07;;;0.97;;
1174;SDS011;576;48.418;10.074;2023-01-15T01:41:46;1.00;;;0.93;;
1174;SDS011;576;48.418;10.074;2023-01-15T01:47:21;0.70;;;0.70;;
1174;SDS011;576;48.418;10.074;2023-01-15T01:49:53;2.03;;;0.70;;
1174;SDS011;576;48.418;10.074;2023-01-15T01:52:26;0.70;;;0.70;;
1174;SDS011;576;48.418;10.074;2023-01-15T01:54:58;0.90;;;0.80;;
1174;SDS011;576;48.418;10.074;2023-01-15T01:57:28;0.80;;;0.80;;
1174;SDS011;576;48.418;10.074;2023-01-15T01:59:57;0.77;;;0.70;;
1174;SDS011;576;48.418;10.074;2023-01-15T02:02:38;1.07;;;0.97;;
1174;SDS011;576;48.418;10.074;2023-01-15T02:05:11;0.90;;;0.90;;
1174;SDS011;576;48.418;10.074;2023-01-15T02:07:43;0.67;;;0.67;;
1174;SDS011;576;48.418;10.074;2023-01-15T02:10:12;0.90;;;0.73;;
1174;SDS011;576;48.418;10.074;2023-01-15T02:12:42;1.27;;;1.00;;
1174;SDS011;576;48.418;10.074;2023-01-15T02:15:17;1.03;;;0.80;;
1174;SDS011;576;48.418;10.074;2023-01-15T02:17:52;1.37;;;0.80;;
1174;SDS011;576;48.418;10.074;2023-01-15T02:20:29;0.60;;;0.60;;
1174;SDS011;576;48.418;10.074;2023-01-15T02:23:19;0.80;;;0.60;;
1174;SDS011;576;48.418;10.074;2023-01-15T02:26:20;0.90;;;0.90;;
1174;SDS011;576;48.418;10.074;2023-01-15T02:29:09;0.83;;;0.83;;
1174;SDS011;576;48.418;10.074;2023-01-15T02:31:42;1.23;;;0.70;;
1174;SDS011;576;48.418;10.074;2023-01-15T02:34:19;0.60;;;0.60;;
1174;SDS011;576;48.418;10.074;2023-01-15T02:36:53;0.77;;;0.77;;
1174;SDS011;576;48.418;10.074;2023-01-15T02:39:25;1.17;;;0.73;;
1174;SDS011;576;48.418;10.074;2023-01-15T02:41:58;0.83;;;0.70;;
1174;SDS011;576;48.418;10.074;2023-01-15T02:44:37;1.27;;;1.00;;
1174;SDS011;576;48.418;10.074;2023-01-15T02:47:10;0.80;;;0.60;;
1174;SDS011;576;48.418;10.074;2023-01-15T02:49:39;0.80;;;0.80;;
1174;SDS011;576;48.418;10.074;2023-01-15T02:52:12;0.80;;;0.80;;
1174;SDS011;576;48.418;10.074;2023-01-15T02:54:46;1.90;;;0.60;;
1174;SDS011;576;48.418;10.074;2023-01-15T02:57:17;0.80;;;0.80;;
1174;SDS011;576;48.418;10.074;2023-01-15T02:59:54;0.77;;;0.70;;
1174;SDS011;576;48.418;10.074;2023-01-15T03:02:26;1.17;;;1.00;;
1174;SDS011;576;48.418;10.074;2023-01-15T03:04:59;0.83;;;0.83;;
1174;SDS011;576;48.418;10.074;2023-01-15T03:07:34;0.60;;;0.57;;
1174;SDS011;576;48.418;10.074;2023-01-15T03:10:07;0.50;;;0.50;;
1174;SDS011;576;48.418;10.074;2023-01-15T03:12:38;0.60;;;0.60;;
1174;SDS011;576;48.418;10.074;2023-01-15T03:15:45;0.73;;;0.67;;
1174;SDS011;576;48.418;10.074;2023-01-15T03:18:39;0.70;;;0.70;;
1174;SDS011;576;48.418;10.074;2023-01-15T03:21:12;0.80;;;0.80;;
1174;SDS011;576;48.418;10.074;2023-01-15T03:23:50;0.60;;;0.60;;
1174;SDS011;576;48.418;10.074;2023-01-15T03:26:24;0.50;;;0.50;;
1174;SDS011;576;48.418;10.074;2023-01-15T03:28:53;0.50;;;0.50;;
1174;SDS011;576;48.418;10.074;2023-01-15T03:31:24;0.50;;;0.50;;
1174;SDS011;576;48.418;10.074;2023-01-15T03:33:53;0.57;;;0.57;;
1174;SDS011;576;48.418;10.074;2023-01-15T03:36:22;0.90;;;0.70;;
1174;SDS011;576;48.418;10.074;2023-01-15T03:38:53;0.53;;;0.50;;
1174;SDS011;576;48.418;10.074;2023-01-15T03:41:47;0.40;;;0.40;;
1174;SDS011;576;48.418;10.074;2023-01-15T03:44:25;0.70;;;0.70;;
1174;SDS011;576;48.418;10.074;2023-01-15T03:47:05;0.67;;;0.60;;
1174;SDS011;576;48.418;10.074;2023-01-15T03:49:42;0.53;;;0.53;;
1174;SDS011;576;48.418;10.074;2023-01-15T03:52:27;0.77;;;0.70;;
1174;SDS011;576;48.418;10.074;2023-01-15T03:55:01;0.50;;;0.50;;
1174;SDS011;576;48.418;10.074;2023-01-15T03:57:38;0.70;;;0.70;;
1174;SDS011;576;48.418;10.074;2023-01-15T04:00:12;0.60;;;0.60;;
1174;SDS011;576;48.418;10.074;2023-01-15T04:02:49;0.70;;;0.50;;
1174;SDS011;576;48.418;10.074;2023-01-15T04:05:20;0.60;;;0.60;;
1174;SDS011;576;48.418;10.074;2023-01-15T04:07:50;0.40;;;0.40;;
1174;SDS011;576;48.418;10.074;2023-01-15T04:10:21;0.70;;;0.70;;
1174;SDS011;576;48.418;10.074;2023-01-15T04:12:50;0.70;;;0.70;;
1174;SDS011;576;48.418;10.074;2023-01-15T04:15:18;0.73;;;0.70;;
1174;SDS011;576;48.418;10.074;2023-01-15T04:17:49;0.57;;;0.50;;
1174;SDS011;576;48.418;10.074;2023-01-15T04:20:17;0.77;;;0.77;;
1174;SDS011;576;48.418;10.074;2023-01-15T04:22:45;0.60;;;0.50;;
1174;SDS011;576;48.418;10.074;2023-01-15T04:25:13;0.50;;;0.50;;
1174;SDS011;576;48.418;10.074;2023-01-15T04:27:42;0.60;;;0.60;;
1174;SDS011;576;48.418;10.074;2023-01-15T04:30:10;0.50;;;0.50;;
1174;SDS011;576;48.418;10.074;2023-01-15T04:32:39;0.77;;;0.77;;
1174;SDS011;576;48.418;10.074;2023-01-15T04:35:09;0.50;;;0.50;;
1174;SDS011;576;48.418;10.074;2023-01-15T04:37:37;0.67;;;0.60;;
1174;SDS011;576;48.418;10.074;2023-01-15T04:40:05;0.50;;;0.40;;
1174;SDS011;576;48.418;10.074;2023-01-15T04:42:35;0.77;;;0.43;;
1174;SDS011;576;48.418;10.074;2023-01-15T04:45:21;1.80;;;0.60;;
1174;SDS011;576;48.418;10.074;2023-01-15T04:47:50;0.70;;;0.60;;
1174;SDS011;576;48.418;10.074;2023-01-15T04:50:19;0.63;;;0.60;;
1174;SDS011;576;48.418;10.074;2023-01-15T04:52:49;0.70;;;0.70;;
1174;SDS011;576;48.418;10.074;2023-01-15T04:55:17;0.50;;;0.50;;
1174;SDS011;576;48.418;10.074;2023-01-15T04:57:48;0.43;;;0.43;;
1174;SDS011;576;48.418;10.074;2023-01-15T05:00:16;1.10;;;0.60;;
1174;SDS011;576;48.418;10.074;2023-01-15T05:02:45;0.73;;;0.47;;
1174;SDS011;576;48.418;10.074;2023-01-15T05:05:13;0.60;;;0.60;;
1174;SDS011;576;48.418;10.074;2023-01-15T05:07:43;0.50;;;0.50;;
1174;SDS011;576;48.418;10.074;2023-01-15T05:10:11;0.70;;;0.50;;
1174;SDS011;576;48.418;10.074;2023-01-15T05:12:39;0.60;;;0.60;;
1174;SDS011;576;48.418;10.074;2023-01-15T05:15:07;0.60;;;0.60;;
1174;SDS011;576;48.418;10.074;2023-01-15T05:17:36;0.60;;;0.50;;
1174;SDS011;576;48.418;10.074;2023-01-15T05:20:04;0.40;;;0.40;;
1174;SDS011;576;48.418;10.074;2023-01-15T05:22:34;1.10;;;0.63;;
1174;SDS011;576;48.418;10.074;2023-01-15T05:25:04;0.40;;;0.40;;
1174;SDS011;576;48.418;10.074;2023-01-15T05:27:32;0.50;;;0.50;;
1174;SDS011;576;48.418;10.074;2023-01-15T05:30:00;0.60;;;0.60;;
1174;SDS011;576;48.418;10.074;2023-01-15T05:32:29;1.03;;;0.60;;
1174;SDS011;576;48.418;10.074;2023-01-15T05:34:57;0.53;;;0.53;;
1174;SDS011;576;48.418;10.074;2023-01-15T05:37:28;0.60;;;0.40;;
1174;SDS011;576;48.418;10.074;2023-01-15T05:39:56;0.50;;;0.50;;
1174;SDS011;576;48.418;10.074;2023-01-15T05:42:26;0.57;;;0.57;;
1174;SDS011;576;48.418;10.074;2023-01-15T05:44:54;0.70;;;0.70;;
1174;SDS011;576;48.418;10.074;2023-01-15T05:47:22;0.40;;;0.40;;
1174;SDS011;576;48.418;10.074;2023-01-15T05:49:50;0.53;;;0.53;;
1174;SDS011;576;48.418;10.074;2023-01-15T05:52:18;0.50;;;0.50;;
1174;SDS011;576;48.418;10.074;2023-01-15T05:54:47;0.50;;;0.50;;
1174;SDS011;576;48.418;10.074;2023-01-15T05:57:16;0.50;;;0.50;;
1174;SDS011;576;48.418;10.074;2023-01-15T05:59:45;0.40;;;0.40;;
1174;SDS011;576;48.418;10.074;2023-01-15T06:02:15;0.40;;;0.40;;
1174;SDS011;576;48.418;10.074;2023-01-15T06:04:43;0.50;;;0.40;;
1174;SDS011;576;48.418;10.074;2023-01-15T06:07:12;0.50;;;0.50;;
1174;SDS011;576;48.418;10.074;2023-01-15T06:09:40;0.40;;;0.40;;
1174;SDS011;576;48.418;10.074;2023-01-15T06:12:08;0.30;;;0.30;;
1174;SDS011;576;48.418;10.074;2023-01-15T06:14:36;0.50;;;0.50;;
1174;SDS011;576;48.418;10.074;2023-01-15T06:17:06;0.40;;;0.40;;
1174;SDS011;576;48.418;10.074;2023-01-15T06:19:34;0.40;;;0.40;;
1174;SDS011;576;48.418;10.074;2023-01-15T06:22:02;0.50;;;0.40;;
1174;SDS011;576;48.418;10.074;2023-01-15T06:24:30;1.03;;;0.60;;
1174;SDS011;576;48.418;10.074;2023-01-15T06:26:58;0.73;;;0.40;;
1174;SDS011;576;48.418;10.074;2023-01-15T06:29:26;0.50;;;0.50;;
1174;SDS011;576;48.418;10.074;2023-01-15T06:31:54;0.43;;;0.43;;
1174;SDS011;576;48.418;10.074;2023-01-15T06:34:24;0.70;;;0.60;;
1174;SDS011;576;48.418;10.074;2023-01-15T06:36:52;0.63;;;0.50;;
1174;SDS011;576;48.418;10.074;2023-01-15T06:39:20;0.40;;;0.30;;
1174;SDS011;576;48.418;10.074;2023-01-15T06:41:48;0.73;;;0.60;;
1174;SDS011;576;48.418;10.074;2023-01-15T06:44:34;0.60;;;0.60;;
1174;SDS011;576;48.418;10.074;2023-01-15T06:47:19;0.50;;;0.50;;
1174;SDS011;576;48.418;10.074;2023-01-15T06:49:51;0.50;;;0.40;;
1174;SDS011;576;48.418;10.074;2023-01-15T06:52:21;0.50;;;0.40;;
1174;SDS011;576;48.418;10.074;2023-01-15T06:54:50;0.50;;;0.30;;
1174;SDS011;576;48.418;10.074;2023-01-15T06:57:18;0.50;;;0.50;;
1174;SDS011;576;48.418;10.074;2023-01-15T06:59:47;0.40;;;0.40;;
1174;SDS011;576;48.418;10.074;2023-01-15T07:02:16;0.40;;;0.40;;
1174;SDS011;576;48.418;10.074;2023-01-15T07:04:44;0.70;;;0.40;;
1174;SDS011;576;48.418;10.074;2023-01-15T07:07:15;0.40;;;0.40;;
1174;SDS011;576;48.418;10.074;2023-01-15T07:09:45;0.50;;;0.30;;
1174;SDS011;576;48.418;10.074;2023-01-15T07:12:13;0.50;;;0.43;;
1174;SDS011;576;48.418;10.074;2023-01-15T07:14:42;0.30;;;0.30;;
1174;SDS011;576;48.418;10.074;2023-01-15T07:17:11;0.60;;;0.60;;
1174;SDS011;576;48.418;10.074;2023-01-15T07:19:39;0.50;;;0.50;;
1174;SDS011;576;48.418;10.074;2023-01-15T07:22:08;0.40;;;0.40;;
1174;SDS011;576;48.418;10.074;2023-01-15T07:24:38;0.57;;;0.40;;
1174;SDS011;576;48.418;10.074;2023-01-15T07:27:06;0.40;;;0.40;;
1174;SDS011;576;48.418;10.074;2023-01-15T07:29:34;0.97;;;0.90;;
1174;SDS011;576;48.418;10.074;2023-01-15T07:32:04;0.40;;;0.40;;
1174;SDS011;576;48.418;10.074;2023-01-15T07:34:32;0.60;;;0.60;;
1174;SDS011;576;48.418;10.074;2023-01-15T07:37:00;0.53;;;0.50;;
1174;SDS011;576;48.418;10.074;2023-01-15T07:39:29;0.70;;;0.53;;
1174;SDS011;576;48.418;10.074;2023-01-15T07:41:59;0.50;;;0.50;;
1174;SDS011;576;48.418;10.074;2023-01-15T07:44:44;0.70;;;0.50;;
1174;SDS011;576;48.418;10.074;2023-01-15T07:47:31;0.60;;;0.60;;
1174;SDS011;576;48.418;10.074;2023-01-15T07:50:17;0.43;;;0.30;;
1174;SDS011;576;48.418;10.074;2023-01-15T07:52:47;0.50;;;0.40;;
1174;SDS011;576;48.418;10.074;2023-01-15T07:55:18;0.73;;;0.73;;
1174;SDS011;576;48.418;10.074;2023-01-15T07:57:48;2.77;;;0.80;;
1174;SDS011;576;48.418;10.074;2023-01-15T08:00:18;2.83;;;0.63;;
1174;SDS011;576;48.418;10.074;2023-01-15T08:02:49;1.10;;;0.63;;
1174;SDS011;576;48.418;10.074;2023-01-15T08:05:17;1.17;;;0.80;;
1174;SDS011;576;48.418;10.074;2023-01-15T08:07:45;2.13;;;0.60;;
1174;SDS011;576;48.418;10.074;2023-01-15T08:10:15;1.07;;;0.70;;
1174;SDS011;576;48.418;10.074;2023-01-15T08:12:44;1.57;;;0.87;;
1174;SDS011;576;48.418;10.074;2023-01-15T08:15:37;1.80;;;0.70;;
1174;SDS011;576;48.418;10.074;2023-01-15T08:18:06;1.90;;;1.80;;
1174;SDS011;576;48.418;10.074;2023-01-15T08:20:34;2.07;;;1.43;;
1174;SDS011;576;48.418;10.074;2023-01-15T08:23:03;1.90;;;0.77;;
1174;SDS011;576;48.418;10.074;2023-01-15T08:25:31;3.13;;;1.17;;
1174;SDS011;576;48.418;10.074;2023-01-15T08:28:01;1.43;;;0.90;;
1174;SDS011;576;48.418;10.074;2023-01-15T08:30:29;1.90;;;0.87;;
1174;SDS011;576;48.418;10.074;2023-01-15T08:32:58;2.63;;;1.23;;
1174;SDS011;576;48.418;10.074;2023-01-15T08:35:28;4.30;;;0.90;;
1174;SDS011;576;48.418;10.074;2023-01-15T08:37:56;1.10;;;0.67;;
1174;SDS011;576;48.418;10.074;2023-01-15T08:40:24;1.47;;;0.83;;
1174;SDS011;576;48.418;10.074;2023-01-15T08:42:53;1.40;;;0.90;;
1174;SDS011;576;48.418;10.074;2023-01-15T08:45:23;1.60;;;1.13;;
1174;SDS011;576;48.418;10.074;2023-01-15T08:47:53;1.90;;;0.73;;
1174;SDS011;576;48.418;10.074;2023-01-15T08:50:21;2.63;;;0.83;;
1174;SDS011;576;48.418;10.074;2023-01-15T08:52:49;2.63;;;1.10;;
1174;SDS011;576;48.418;10.074;2023-01-15T08:55:18;3.37;;;1.23;;
1174;SDS011;576;48.418;10.074;2023-01-15T08:57:46;6.20;;;1.30;;
1174;SDS011;576;48.418;10.074;2023-01-15T09:00:14;2.20;;;1.20;;
1174;SDS011;576;48.418;10.074;2023-01-15T09:02:44;3.60;;;1.30;;
1174;SDS011;576;48.418;10.074;2023-01-15T09:05:15;1.70;;;1.07;;
1174;SDS011;576;48.418;10.074;2023-01-15T09:07:44;11.47;;;1.20;;
1174;SDS011;576;48.418;10.074;2023-01-15T09:10:12;3.00;;;0.90;;
1174;SDS011;576;48.418;10.074;2023-01-15T09:12:40;1.70;;;1.10;;
1174;SDS011;576;48.418;10.074;2023-01-15T09:15:09;2.30;;;1.10;;
1174;SDS011;576;48.418;10.074;2023-01-15T09:17:37;1.40;;;1.10;;
1174;SDS011;576;48.418;10.074;2023-01-15T09:20:09;2.00;;;1.27;;
1174;SDS011;576;48.418;10.074;2023-01-15T09:22:39;2.40;;;0.80;;
1174;SDS011;576;48.418;10.074;2023-01-15T09:25:08;6.40;;;1.20;;
1174;SDS011;576;48.418;10.074;2023-01-15T09:27:37;2.43;;;0.80;;
1174;SDS011;576;48.418;10.074;2023-01-15T09:30:07;1.80;;;1.00;;
1174;SDS011;576;48.418;10.074;2023-01-15T09:32:38;2.60;;;2.07;;
1174;SDS011;576;48.418;10.074;2023-01-15T09:35:08;1.70;;;0.70;;
1174;SDS011;576;48.418;10.074;2023-01-15T09:37:37;2.37;;;0.73;;
1174;SDS011;576;48.418;10.074;2023-01-15T09:40:07;1.33;;;0.80;;
1174;SDS011;576;48.418;10.074;2023-01-15T09:42:48;0.93;;;0.90;;
1174;SDS011;576;48.418;10.074;2023-01-15T09:45:23;2.27;;;1.03;;
1174;SDS011;576;48.418;10.074;2023-01-15T09:48:07;2.87;;;1.33;;
1174;SDS011;576;48.418;10.074;2023-01-15T09:51:05;1.40;;;0.90;;
1174;SDS011;576;48.418;10.074;2023-01-15T09:56:51;3.40;;;1.27;;
1174;SDS011;576;48.418;10.074;2023-01-15T09:59:23;5.73;;;1.30;;
1174;SDS011;576;48.418;10.074;2023-01-15T10:01:58;1.63;;;1.30;;
1174;SDS011;576;48.418;10.074;2023-01-15T10:04:30;4.60;;;1.60;;
1174;SDS011;576;48.418;10.074;2023-01-15T10:07:12;2.23;;;1.50;;
1174;SDS011;576;48.418;10.074;2023-01-15T10:09:46;3.70;;;1.80;;
1174;SDS011;576;48.418;10.074;2023-01-15T10:12:24;4.70;;;1.50;;
1174;SDS011;576;48.418;10.074;2023-01-15T10:15:15;3.43;;;2.00;;
1174;SDS011;576;48.418;10.074;2023-01-15T10:17:49;5.83;;;1.50;;
1174;SDS011;576;48.418;10.074;2023-01-15T10:23:35;5.70;;;1.90;;
1174;SDS011;576;48.418;10.074;2023-01-15T10:26:12;7.73;;;1.40;;
1174;SDS011;576;48.418;10.074;2023-01-15T10:28:52;3.63;;;1.50;;
1174;SDS011;576;48.418;10.074;2023-01-15T10:31:33;6.53;;;1.40;;
1174;SDS011;576;48.418;10.074;2023-01-15T10:34:23;3.90;;;2.43;;
1174;SDS011;576;48.418;10.074;2023-01-15T10:37:21;5.73;;;1.57;;
1174;SDS011;576;48.418;10.074;2023-01-15T10:39:58;2.50;;;1.40;;
1174;SDS011;576;48.418;10.074;2023-01-15T10:42:41;6.27;;;1.50;;
1174;SDS011;576;48.418;10.074;2023-01-15T10:45:15;4.97;;;1.80;;
1174;SDS011;576;48.418;10.074;2023-01-15T10:47:49;5.17;;;1.87;;
1174;SDS011;576;48.418;10.074;2023-01-15T10:50:22;1.43;;;0.97;;
1174;SDS011;576;48.418;10.074;2023-01-15T10:52:56;3.60;;;1.40;;
1174;SDS011;576;48.418;10.074;2023-01-15T10:55:34;2.23;;;1.10;;
1174;SDS011;576;48.418;10.074;2023-01-15T10:58:09;2.77;;;1.20;;
1174;SDS011;576;48.418;10.074;2023-01-15T11:00:40;3.50;;;1.03;;
1174;SDS011;576;48.418;10.074;2023-01-15T11:03:16;2.37;;;0.93;;
1174;SDS011;576;48.418;10.074;2023-01-15T11:05:49;4.20;;;1.27;;
1174;SDS011;576;48.418;10.074;2023-01-15T11:08:20;7.97;;;1.37;;
1174;SDS011;576;48.418;10.074;2023-01-15T11:11:16;3.33;;;1.67;;
1174;SDS011;576;48.418;10.074;2023-01-15T11:13:52;4.40;;;1.70;;
1174;SDS011;576;48.418;10.074;2023-01-15T11:16:38;2.63;;;1.77;;
1174;SDS011;576;48.418;10.074;2023-01-15T11:19:27;4.17;;;2.10;;
1174;SDS011;576;48.418;10.074;2023-01-15T11:22:06;3.27;;;1.40;;
1174;SDS011;576;48.418;10.074;2023-01-15T11:24:37;3.53;;;2.30;;
1174;SDS011;576;48.418;10.074;2023-01-15T11:27:15;2.87;;;1.27;;
1174;SDS011;576;48.418;10.074;2023-01-15T11:29:49;1.83;;;1.10;;
1174;SDS011;576;48.418;10.074;2023-01-15T11:32:27;2.23;;;1.40;;
1174;SDS011;576;48.418;10.074;2023-01-15T11:34:57;1.77;;;0.97;;
1174;SDS011;576;48.418;10.074;2023-01-15T11:37:26;1.73;;;0.90;;
1174;SDS011;576;48.418;10.074;2023-01-15T11:39:55;1.47;;;1.27;;
1174;SDS011;576;48.418;10.074;2023-01-15T11:42:31;3.93;;;1.43;;
1174;SDS011;576;48.418;10.074;2023-01-15T11:45:17;2.83;;;1.33;;
1174;SDS011;576;48.418;10.074;2023-01-15T11:48:08;7.30;;;1.50;;
1174;SDS011;576;48.418;10.074;2023-01-15T11:51:01;2.70;;;1.80;;
1174;SDS011;576;48.418;10.074;2023-01-15T11:53:34;6.23;;;1.50;;
1174;SDS011;576;48.418;10.074;2023-01-15T11:56:08;2.47;;;1.50;;
1174;SDS011;576;48.418;10.074;2023-01-15T11:58:42;3.47;;;1.73;;
1174;SDS011;576;48.418;10.074;2023-01-15T12:01:13;3.53;;;1.43;;
1174;SDS011;576;48.418;10.074;2023-01-15T12:03:49;2.77;;;1.30;;
1174;SDS011;576;48.418;10.074;2023-01-15T12:06:18;2.63;;;1.20;;
1174;SDS011;576;48.418;10.074;2023-01-15T12:08:47;3.77;;;1.50;;
1174;SDS011;576;48.418;10.074;2023-01-15T12:11:24;2.17;;;1.43;;
1174;SDS011;576;48.418;10.074;2023-01-15T12:14:10;4.93;;;1.13;;
1174;SDS011;576;48.418;10.074;2023-01-15T12:16:59;2.47;;;1.57;;
1174;SDS011;576;48.418;10.074;2023-01-15T12:19:35;1.77;;;1.33;;
1174;SDS011;576;48.418;10.074;2023-01-15T12:25:13;3.67;;;1.83;;
1174;SDS011;576;48.418;10.074;2023-01-15T12:27:53;1.83;;;1.43;;
1174;SDS011;576;48.418;10.074;2023-01-15T12:30:37;1.87;;;1.50;;
1174;SDS011;576;48.418;10.074;2023-01-15T12:33:15;6.73;;;1.97;;
1174;SDS011;576;48.418;10.074;2023-01-15T12:35:49;1.77;;;1.60;;
1174;SDS011;576;48.418;10.074;2023-01-15T12:38:25;4.63;;;1.70;;
1174;SDS011;576;48.418;10.074;2023-01-15T12:41:05;5.53;;;1.50;;
1174;SDS011;576;48.418;10.074;2023-01-15T12:43:36;4.47;;;2.07;;
1174;SDS011;576;48.418;10.074;2023-01-15T12:46:24;4.27;;;1.90;;
1174;SDS011;576;48.418;10.074;2023-01-15T12:48:57;3.40;;;2.10;;
1174;SDS011;576;48.418;10.074;2023-01-15T12:51:32;2.13;;;1.57;;
1174;SDS011;576;48.418;10.074;2023-01-15T12:54:09;4.50;;;1.47;;
1174;SDS011;576;48.418;10.074;2023-01-15T12:56:44;2.53;;;1.67;;
1174;SDS011;576;48.418;10.074;2023-01-15T12:59:19;2.90;;;1.57;;
1174;SDS011;576;48.418;10.074;2023-01-15T13:01:55;2.50;;;1.70;;
1174;SDS011;576;48.418;10.074;2023-01-15T13:04:43;3.27;;;1.40;;
1174;SDS011;576;48.418;10.074;2023-01-15T13:07:17;3.93;;;1.80;;
1174;SDS011;576;48.418;10.074;2023-01-15T13:09:52;3.43;;;2.10;;
1174;SDS011;576;48.418;10.074;2023-01-15T13:12:26;2.67;;;1.73;;
1174;SDS011;576;48.418;10.074;2023-01-15T13:14:56;4.70;;;2.13;;
1174;SDS011;576;48.418;10.074;2023-01-15T13:17:28;2.70;;;1.30;;
1174;SDS011;576;48.418;10.074;2023-01-15T13:20:11;6.53;;;1.60;;
1174;SDS011;576;48.418;10.074;2023-01-15T13:22:51;5.57;;;1.80;;
1174;SDS011;576;48.418;10.074;2023-01-15T13:28:35;5.50;;;1.80;;
1174;SDS011;576;48.418;10.074;2023-01-15T13:31:18;4.60;;;2.27;;
1174;SDS011;576;48.418;10.074;2023-01-15T13:34:11;1.93;;;1.47;;
1174;SDS011;576;48.418;10.074;2023-01-15T13:36:45;3.73;;;1.87;;
1174;SDS011;576;48.418;10.074;2023-01-15T13:39:16;2.80;;;1.70;;
1174;SDS011;576;48.418;10.074;2023-01-15T13:41:48;3.03;;;1.50;;
1174;SDS011;576;48.418;10.074;2023-01-15T13:44:44;3.73;;;1.63;;
1174;SDS011;576;48.418;10.074;2023-01-15T13:47:17;3.37;;;1.47;;
1174;SDS011;576;48.418;10.074;2023-01-15T13:49:51;3.63;;;2.00;;
1174;SDS011;576;48.418;10.074;2023-01-15T13:52:23;2.20;;;1.30;;
1174;SDS011;576;48.418;10.074;2023-01-15T13:54:55;4.03;;;1.93;;
1174;SDS011;576;48.418;10.074;2023-01-15T13:57:31;1.90;;;1.43;;
1174;SDS011;576;48.418;10.074;2023-01-15T14:00:00;7.13;;;1.53;;
1174;SDS011;576;48.418;10.074;2023-01-15T14:02:37;2.93;;;1.50;;
1174;SDS011;576;48.418;10.074;2023-01-15T14:07:58;2.47;;;1.47;;
1174;SDS011;576;48.418;10.074;2023-01-15T14:10:35;1.30;;;1.20;;
1174;SDS011;576;48.418;10.074;2023-01-15T14:13:12;1.73;;;1.20;;
1174;SDS011;576;48.418;10.074;2023-01-15T14:15:51;2.30;;;1.37;;
1174;SDS011;576;48.418;10.074;2023-01-15T14:18:53;2.60;;;1.40;;
1174;SDS011;576;48.418;10.074;2023-01-15T14:21:46;4.30;;;1.53;;
1174;SDS011;576;48.418;10.074;2023-01-15T14:24:28;2.20;;;1.13;;
1174;SDS011;576;48.418;10.074;2023-01-15T14:27:13;5.00;;;1.60;;
1174;SDS011;576;48.418;10.074;2023-01-15T14:32:55;2.83;;;1.50;;
1174;SDS011;576;48.418;10.074;2023-01-15T14:35:32;1.73;;;1.40;;
1174;SDS011;576;48.418;10.074;2023-01-15T14:38:04;1.47;;;1.20;;
1174;SDS011;576;48.418;10.074;2023-01-15T14:40:34;3.87;;;1.40;;
1174;SDS011;576;48.418;10.074;2023-01-15T14:43:07;2.27;;;1.30;;
1174;SDS011;576;48.418;10.074;2023-01-15T14:45:42;1.80;;;1.60;;
1174;SDS011;576;48.418;10.074;2023-01-15T14:48:17;2.10;;;1.37;;
1174;SDS011;576;48.418;10.074;2023-01-15T14:50:46;1.93;;;1.40;;
1174;SDS011;576;48.418;10.074;2023-01-15T14:53:28;2.43;;;1.30;;
1174;SDS011;576;48.418;10.074;2023-01-15T14:56:02;5.50;;;1.40;;
1174;SDS011;576;48.418;10.074;2023-01-15T14:58:41;3.63;;;1.30;;
1174;SDS011;576;48.418;10.074;2023-01-15T15:01:28;1.63;;;1.50;;
1174;SDS011;576;48.418;10.074;2023-01-15T15:04:04;2.30;;;1.70;;
1174;SDS011;576;48.418;10.074;2023-01-15T15:06:40;1.50;;;1.40;;
1174;SDS011;576;48.418;10.074;2023-01-15T15:09:14;1.40;;;1.30;;
1174;SDS011;576;48.418;10.074;2023-01-15T15:11:52;1.20;;;1.10;;
1174;SDS011;576;48.418;10.074;2023-01-15T15:14:41;1.17;;;1.07;;
1174;SDS011;576;48.418;10.074;2023-01-15T15:17:16;1.70;;;1.10;;
1174;SDS011;576;48.418;10.074;2023-01-15T15:19:50;1.83;;;1.50;;
1174;SDS011;576;48.418;10.074;2023-01-15T15:22:28;1.13;;;1.03;;
1174;SDS011;576;48.418;10.074;2023-01-15T15:25:00;1.90;;;1.00;;
1174;SDS011;576;48.418;10.074;2023-01-15T15:27:37;3.60;;;1.40;;
1174;SDS011;576;48.418;10.074;2023-01-15T15:30:05;1.57;;;1.10;;
1174;SDS011;576;48.418;10.074;2023-01-15T15:32:37;1.50;;;1.40;;
1174;SDS011;576;48.418;10.074;2023-01-15T15:35:15;3.17;;;1.20;;
1174;SDS011;576;48.418;10.074;2023-01-15T15:37:50;1.83;;;1.10;;
1174;SDS011;576;48.418;10.074;2023-01-15T15:40:22;1.30;;;1.20;;
1174;SDS011;576;48.418;10.074;2023-01-15T15:42:58;1.23;;;1.10;;
1174;SDS011;576;48.418;10.074;2023-01-15T15:45:52;1.23;;;1.00;;
1174;SDS011;576;48.418;10.074;2023-01-15T15:48:39;2.93;;;1.43;;
1174;SDS011;576;48.418;10.074;2023-01-15T15:54:10;2.50;;;1.67;;
1174;SDS011;576;48.418;10.074;2023-01-15T15:56:44;1.00;;;1.00;;
1174;SDS011;576;48.418;10.074;2023-01-15T16:02:06;2.73;;;1.00;;
1174;SDS011;576;48.418;10.074;2023-01-15T16:04:45;1.63;;;1.43;;
1174;SDS011;576;48.418;10.074;2023-01-15T16:07:19;1.47;;;1.30;;
1174;SDS011;576;48.418;10.074;2023-01-15T16:09:52;0.77;;;0.77;;
1174;SDS011;576;48.418;10.074;2023-01-15T16:12:24;1.13;;;0.97;;
1174;SDS011;576;48.418;10.074;2023-01-15T16:14:55;1.30;;;0.90;;
1174;SDS011;576;48.418;10.074;2023-01-15T16:17:26;1.73;;;1.13;;
1174;SDS011;576;48.418;10.074;2023-01-15T16:19:55;1.10;;;1.00;;
1174;SDS011;576;48.418;10.074;2023-01-15T16:22:24;1.50;;;1.00;;